createdAt,value
2022-11-25T00:01:21.003Z,2.97
2022-11-25T00:03:48.185Z,2.97
2022-11-25T00:06:20.004Z,2.92
2022-11-25T00:08:49.382Z,2.86
2022-11-25T00:11:16.518Z,2.90
2022-11-25T00:13:44.317Z,2.92
2022-11-25T00:16:13.090Z,2.92
2022-11-25T00:18:40.084Z,2.91
2022-11-25T00:21:08.043Z,2.90
2022-11-25T00:23:35.011Z,2.87
2022-11-25T00:26:09.204Z,2.82
2022-11-25T00:28:35.840Z,2.77
2022-11-25T00:31:23.188Z,2.76
2022-11-25T00:33:50.385Z,2.82
2022-11-25T00:36:20.154Z,2.85
2022-11-25T00:38:47.098Z,2.84
2022-11-25T00:41:32.505Z,2.81
2022-11-25T00:44:17.404Z,2.73
2022-11-25T00:46:43.738Z,2.83
2022-11-25T00:49:10.020Z,2.74
2022-11-25T00:51:36.370Z,2.79
2022-11-25T00:54:02.751Z,2.76
2022-11-25T00:56:30.223Z,2.80
2022-11-25T00:58:56.589Z,2.82
2022-11-25T01:01:23.420Z,2.77
2022-11-25T01:03:50.944Z,2.72
2022-11-25T01:06:17.407Z,2.75
2022-11-25T01:08:44.302Z,2.76
2022-11-25T01:11:18.075Z,2.78
2022-11-25T01:13:45.060Z,2.77
2022-11-25T01:16:13.925Z,2.79
2022-11-25T01:18:40.282Z,2.85
2022-11-25T01:21:18.684Z,2.89
2022-11-25T01:23:45.357Z,2.91
2022-11-25T01:26:14.795Z,2.93
2022-11-25T01:28:41.120Z,2.98
2022-11-25T01:31:15.011Z,2.98
2022-11-25T01:33:42.147Z,3.01
2022-11-25T01:36:11.825Z,3.02
2022-11-25T01:38:39.068Z,3.07
2022-11-25T01:41:07.304Z,3.10
2022-11-25T01:43:34.169Z,3.05
2022-11-25T01:46:22.556Z,3.10
2022-11-25T01:48:59.804Z,3.13
2022-11-25T01:51:39.957Z,3.12
2022-11-25T01:54:10.643Z,3.11
2022-11-25T01:56:43.033Z,3.01
2022-11-25T01:59:09.450Z,2.95
2022-11-25T02:01:35.998Z,2.91
2022-11-25T02:04:03.390Z,2.91
2022-11-25T02:06:37.494Z,2.87
2022-11-25T02:09:06.936Z,2.86
2022-11-25T02:11:35.655Z,2.85
2022-11-25T02:14:03.011Z,2.85
2022-11-25T02:16:29.568Z,2.76
2022-11-25T02:18:56.028Z,2.74
2022-11-25T02:21:30.858Z,2.82
2022-11-25T02:24:18.242Z,2.81
2022-11-25T02:26:44.656Z,2.79
2022-11-25T02:29:12.470Z,2.86
2022-11-25T02:31:38.800Z,2.92
2022-11-25T02:34:05.332Z,2.88
2022-11-25T02:36:31.815Z,2.77
2022-11-25T02:39:01.442Z,2.73
2022-11-25T02:41:43.712Z,2.76
2022-11-25T02:44:10.326Z,2.86
2022-11-25T02:46:36.712Z,2.85
2022-11-25T02:49:10.984Z,2.84
2022-11-25T02:51:40.030Z,2.88
2022-11-25T02:54:07.068Z,2.92
2022-11-25T02:56:35.358Z,2.87
2022-11-25T02:59:02.207Z,2.86
2022-11-25T03:01:31.048Z,2.83
2022-11-25T03:03:58.033Z,2.79
2022-11-25T03:06:24.357Z,2.76
2022-11-25T03:08:50.700Z,2.74
2022-11-25T03:11:17.281Z,2.70
2022-11-25T03:13:43.765Z,2.71
2022-11-25T03:16:10.483Z,2.77
2022-11-25T03:18:36.948Z,2.68
2022-11-25T03:21:03.513Z,2.65
2022-11-25T03:23:29.944Z,2.67
2022-11-25T03:25:56.228Z,2.67
2022-11-25T03:28:23.128Z,2.69
2022-11-25T03:30:49.422Z,2.68
2022-11-25T03:33:15.709Z,2.60
2022-11-25T03:35:41.988Z,2.57
2022-11-25T03:38:08.355Z,2.58
2022-11-25T03:40:34.685Z,2.55
2022-11-25T03:43:01.028Z,2.52
2022-11-25T03:45:27.322Z,2.45
2022-11-25T03:47:53.595Z,2.47
2022-11-25T03:50:19.996Z,2.50
2022-11-25T03:52:46.303Z,2.51
2022-11-25T03:55:13.937Z,2.53
2022-11-25T03:57:41.075Z,2.51
2022-11-25T04:00:09.251Z,2.60
2022-11-25T04:02:35.625Z,2.71
2022-11-25T04:05:03.083Z,2.77
2022-11-25T04:07:29.401Z,2.83
2022-11-25T04:09:55.710Z,2.80
2022-11-25T04:12:40.601Z,2.73
2022-11-25T04:15:07.467Z,2.70
2022-11-25T04:17:34.338Z,2.63
2022-11-25T04:20:00.606Z,2.61
2022-11-25T04:22:27.104Z,2.69
2022-11-25T04:24:53.419Z,2.69
2022-11-25T04:27:20.515Z,2.62
2022-11-25T04:29:47.086Z,2.64
2022-11-25T04:32:13.482Z,2.63
2022-11-25T04:34:40.226Z,2.57
2022-11-25T04:37:06.536Z,2.58
2022-11-25T04:39:32.813Z,2.60
2022-11-25T04:42:17.909Z,2.59
2022-11-25T04:44:52.105Z,2.64
2022-11-25T04:47:31.863Z,2.61
2022-11-25T04:49:58.930Z,2.65
2022-11-25T04:52:25.347Z,2.67
2022-11-25T04:54:51.670Z,2.68
2022-11-25T04:57:18.194Z,2.69
2022-11-25T04:59:44.964Z,2.71
2022-11-25T05:02:23.899Z,2.63
2022-11-25T05:04:52.126Z,2.67
2022-11-25T05:07:20.580Z,2.71
2022-11-25T05:09:47.611Z,2.68
2022-11-25T05:12:22.135Z,2.65
2022-11-25T05:14:49.068Z,2.66
2022-11-25T05:17:18.734Z,2.69
2022-11-25T05:19:45.985Z,2.65
2022-11-25T05:22:18.252Z,2.60
2022-11-25T05:24:45.066Z,2.63
2022-11-25T05:27:12.042Z,2.61
2022-11-25T05:29:38.601Z,2.60
2022-11-25T05:32:06.026Z,2.57
2022-11-25T05:34:32.329Z,2.53
2022-11-25T05:36:58.942Z,2.42
2022-11-25T05:39:25.944Z,2.41
2022-11-25T05:41:52.221Z,2.36
2022-11-25T05:44:22.882Z,2.32
2022-11-25T05:46:50.045Z,2.41
2022-11-25T05:49:17.242Z,2.37
2022-11-25T05:51:43.704Z,2.38
2022-11-25T05:54:10.154Z,2.36
2022-11-25T05:56:36.650Z,2.38
2022-11-25T05:59:03.748Z,2.37
2022-11-25T06:01:30.261Z,2.33
2022-11-25T06:04:00.890Z,2.39
2022-11-25T06:06:27.588Z,2.40
2022-11-25T06:08:53.876Z,2.42
2022-11-25T06:11:20.248Z,2.38
2022-11-25T06:13:46.582Z,2.41
2022-11-25T06:16:23.276Z,2.45
2022-11-25T06:18:50.217Z,2.44
2022-11-25T06:21:17.630Z,2.36
2022-11-25T06:23:45.441Z,2.42
2022-11-25T06:26:14.773Z,2.41
2022-11-25T06:28:41.345Z,2.42
2022-11-25T06:31:16.387Z,2.38
2022-11-25T06:33:43.169Z,2.37
2022-11-25T06:36:16.875Z,2.37
2022-11-25T06:38:45.011Z,2.36
2022-11-25T06:41:11.960Z,2.32
2022-11-25T06:43:38.512Z,2.35
2022-11-25T06:46:07.586Z,2.40
2022-11-25T06:48:34.473Z,2.39
2022-11-25T06:51:03.162Z,2.39
2022-11-25T06:53:31.464Z,2.44
2022-11-25T06:56:05.114Z,2.44
2022-11-25T06:58:36.221Z,2.43
2022-11-25T07:01:06.607Z,2.46
2022-11-25T07:03:33.743Z,2.44
2022-11-25T07:06:00.473Z,2.42
2022-11-25T07:08:33.579Z,2.39
2022-11-25T07:11:12.687Z,2.41
2022-11-25T07:13:38.957Z,2.46
2022-11-25T07:16:06.683Z,2.48
2022-11-25T07:18:35.514Z,2.47
2022-11-25T07:21:06.961Z,2.42
2022-11-25T07:23:34.489Z,2.39
2022-11-25T07:26:08.852Z,2.35
2022-11-25T07:28:36.207Z,2.37
2022-11-25T07:31:23.173Z,2.41
2022-11-25T07:33:55.731Z,2.43
2022-11-25T07:36:22.823Z,2.36
2022-11-25T07:38:49.722Z,2.43
2022-11-25T07:41:21.792Z,2.48
2022-11-25T07:43:50.384Z,2.49
2022-11-25T07:46:24.992Z,2.51
2022-11-25T07:48:55.053Z,2.55
2022-11-25T07:51:34.593Z,2.62
2022-11-25T07:54:03.037Z,2.55
2022-11-25T07:56:30.117Z,2.54
2022-11-25T07:58:57.559Z,2.57
2022-11-25T08:01:24.952Z,2.56
2022-11-25T08:03:51.981Z,2.61
2022-11-25T08:06:22.110Z,2.65
2022-11-25T08:08:49.137Z,2.68
2022-11-25T08:11:21.089Z,2.63
2022-11-25T08:13:48.001Z,2.66
2022-11-25T08:16:16.428Z,2.73
2022-11-25T08:18:43.098Z,2.79
2022-11-25T08:21:11.367Z,2.92
2022-11-25T08:23:39.020Z,2.96
2022-11-25T08:26:10.276Z,2.98
2022-11-25T08:28:38.487Z,3.00
2022-11-25T08:31:07.420Z,3.07
2022-11-25T08:33:34.250Z,3.12
2022-11-25T08:36:00.688Z,3.19
2022-11-25T08:38:28.501Z,3.29
2022-11-25T08:40:55.796Z,3.35
2022-11-25T08:43:29.097Z,3.34
2022-11-25T08:45:56.150Z,3.38
2022-11-25T08:48:22.517Z,3.36
2022-11-25T08:50:52.962Z,3.39
2022-11-25T08:53:21.320Z,3.38
2022-11-25T08:55:48.088Z,3.35
2022-11-25T08:58:14.428Z,3.39
2022-11-25T09:00:42.877Z,3.42
2022-11-25T09:03:09.810Z,3.49
2022-11-25T09:05:40.595Z,3.52
2022-11-25T09:08:10.093Z,3.57
2022-11-25T09:10:38.789Z,3.59
2022-11-25T09:13:05.461Z,3.61
2022-11-25T09:15:32.676Z,3.65
2022-11-25T09:18:05.674Z,3.69
2022-11-25T09:20:32.899Z,3.69
2022-11-25T09:23:00.640Z,3.73
2022-11-25T09:25:27.727Z,3.69
2022-11-25T09:27:55.637Z,3.59
2022-11-25T09:30:22.395Z,3.65
2022-11-25T09:32:50.682Z,3.75
2022-11-25T09:35:17.724Z,3.81
2022-11-25T09:37:44.210Z,3.82
2022-11-25T09:40:45.086Z,3.88
2022-11-25T09:43:45.966Z,3.99
2022-11-25T09:46:41.338Z,4.00
2022-11-25T09:49:14.874Z,4.01
2022-11-25T09:52:06.810Z,4.05
2022-11-25T09:54:55.945Z,4.14
2022-11-25T09:57:35.826Z,4.20
2022-11-25T10:00:21.061Z,4.22
2022-11-25T10:03:20.203Z,4.32
2022-11-25T10:05:56.099Z,4.39
2022-11-25T10:08:27.031Z,4.34
2022-11-25T10:11:01.372Z,4.45
2022-11-25T10:13:31.792Z,4.44
2022-11-25T10:16:01.665Z,4.50
2022-11-25T10:18:41.888Z,4.48
2022-11-25T10:21:10.241Z,4.52
2022-11-25T10:23:39.452Z,4.49
2022-11-25T10:26:20.352Z,4.48
2022-11-25T10:28:55.595Z,4.47
2022-11-25T10:31:32.988Z,4.45
2022-11-25T10:34:02.049Z,4.51
2022-11-25T10:36:34.865Z,4.46
2022-11-25T10:39:17.075Z,4.51
2022-11-25T10:41:58.858Z,4.50
2022-11-25T10:44:32.010Z,4.55
2022-11-25T10:47:33.546Z,4.66
2022-11-25T10:50:37.664Z,4.64
2022-11-25T10:53:17.162Z,4.64
2022-11-25T10:56:10.548Z,4.63
2022-11-25T10:58:38.814Z,4.69
2022-11-25T11:01:22.656Z,4.71
2022-11-25T11:03:55.040Z,4.77
2022-11-25T11:06:42.162Z,4.78
2022-11-25T11:09:32.392Z,4.83
2022-11-25T11:12:13.094Z,4.84
2022-11-25T11:14:39.396Z,4.85
2022-11-25T11:17:05.872Z,4.92
2022-11-25T11:19:32.187Z,5.01
2022-11-25T11:22:25.123Z,4.91
2022-11-25T11:25:24.871Z,4.99
2022-11-25T11:27:51.215Z,4.94
2022-11-25T11:30:26.502Z,5.05
2022-11-25T11:32:59.652Z,5.01
2022-11-25T11:35:40.397Z,4.98
2022-11-25T11:38:31.318Z,5.06
2022-11-25T11:41:07.162Z,5.10
2022-11-25T11:43:43.569Z,5.06
2022-11-25T11:46:24.172Z,5.14
2022-11-25T11:49:30.258Z,5.08
2022-11-25T11:52:12.922Z,5.10
2022-11-25T11:54:52.469Z,5.17
2022-11-25T11:57:33.882Z,5.24
2022-11-25T12:00:05.813Z,5.28
2022-11-25T12:02:46.801Z,5.24
2022-11-25T12:05:18.136Z,5.30
2022-11-25T12:07:54.879Z,5.35
2022-11-25T12:10:37.761Z,5.28
2022-11-25T12:13:16.564Z,5.32
2022-11-25T12:16:31.936Z,5.38
2022-11-25T12:19:14.889Z,5.36
2022-11-25T12:21:53.290Z,5.45
2022-11-25T12:24:26.996Z,5.47
2022-11-25T12:27:07.946Z,5.44
2022-11-25T12:29:55.680Z,5.49
2022-11-25T12:32:34.112Z,5.42
2022-11-25T12:35:12.395Z,5.44
2022-11-25T12:37:46.927Z,5.52
2022-11-25T12:40:35.935Z,5.47
2022-11-25T12:43:28.405Z,5.55
2022-11-25T12:46:11.039Z,5.56
2022-11-25T12:48:41.518Z,5.59
2022-11-25T12:51:23.006Z,5.63
2022-11-25T12:54:12.388Z,5.60
2022-11-25T12:57:20.276Z,5.69
2022-11-25T13:00:39.408Z,5.59
2022-11-25T13:03:17.221Z,5.67
2022-11-25T13:05:49.552Z,5.72
2022-11-25T13:08:36.294Z,5.77
2022-11-25T13:11:22.379Z,5.83
2022-11-25T13:14:24.395Z,5.91
2022-11-25T13:16:53.889Z,5.97
2022-11-25T13:19:20.931Z,5.96
2022-11-25T13:22:00.593Z,5.99
2022-11-25T13:24:33.563Z,6.01
2022-11-25T13:27:05.250Z,6.06
2022-11-25T13:29:31.540Z,6.01
2022-11-25T13:32:03.173Z,6.06
2022-11-25T13:34:34.284Z,6.07
2022-11-25T13:37:21.505Z,6.08
2022-11-25T13:39:47.924Z,6.12
2022-11-25T13:42:26.823Z,6.16
2022-11-25T13:44:55.862Z,6.16
2022-11-25T13:47:28.225Z,6.12
2022-11-25T13:50:19.009Z,6.14
2022-11-25T13:53:00.782Z,6.24
2022-11-25T13:55:40.158Z,6.14
2022-11-25T13:58:09.504Z,6.20
2022-11-25T14:00:35.869Z,6.22
2022-11-25T14:03:44.692Z,6.22
2022-11-25T14:06:27.390Z,6.22
2022-11-25T14:09:02.563Z,6.23
2022-11-25T14:11:59.737Z,6.28
2022-11-25T14:14:51.828Z,6.28
2022-11-25T14:17:46.197Z,6.26
2022-11-25T14:20:34.852Z,6.36
2022-11-25T14:23:31.947Z,6.34
2022-11-25T14:26:16.298Z,6.32
2022-11-25T14:29:13.418Z,6.37
2022-11-25T14:31:45.459Z,6.31
2022-11-25T14:34:15.700Z,6.30
2022-11-25T14:36:50.907Z,6.34
2022-11-25T14:39:33.705Z,6.38
2022-11-25T14:42:09.625Z,6.37
2022-11-25T14:44:50.611Z,6.38
2022-11-25T14:47:28.303Z,6.34
2022-11-25T14:50:18.950Z,6.43
2022-11-25T14:52:45.883Z,6.43
2022-11-25T14:55:12.813Z,6.41
2022-11-25T14:57:43.584Z,6.31
2022-11-25T15:00:15.420Z,6.38
2022-11-25T15:03:02.012Z,6.40
2022-11-25T15:05:36.678Z,6.31
2022-11-25T15:08:13.089Z,6.36
2022-11-25T15:10:44.075Z,6.37
2022-11-25T15:13:24.414Z,6.35
2022-11-25T15:15:52.323Z,6.39
2022-11-25T15:18:21.789Z,6.26
2022-11-25T15:20:53.541Z,6.29
2022-11-25T15:23:31.876Z,6.28
2022-11-25T15:25:58.328Z,6.32
2022-11-25T15:28:24.696Z,6.31
2022-11-25T15:30:59.801Z,6.32
2022-11-25T15:33:28.443Z,6.35
2022-11-25T15:35:55.722Z,6.35
2022-11-25T15:38:43.377Z,6.39
2022-11-25T15:41:35.804Z,6.43
2022-11-25T15:44:04.926Z,6.47
2022-11-25T15:46:35.058Z,6.42
2022-11-25T15:49:06.010Z,6.42
2022-11-25T15:51:43.946Z,6.46
2022-11-25T15:54:13.180Z,6.43
2022-11-25T15:56:45.826Z,6.42
2022-11-25T15:59:42.326Z,6.45
2022-11-25T16:02:44.122Z,6.43
2022-11-25T16:05:13.918Z,6.45
2022-11-25T16:07:52.347Z,6.43
2022-11-25T16:10:24.588Z,6.43
2022-11-25T16:13:22.911Z,6.44
2022-11-25T16:16:09.076Z,6.51
2022-11-25T16:18:40.949Z,6.51
2022-11-25T16:21:13.536Z,6.51
2022-11-25T16:23:45.073Z,6.55
2022-11-25T16:26:17.312Z,6.58
2022-11-25T16:28:52.314Z,6.63
2022-11-25T16:31:19.273Z,6.64
2022-11-25T16:33:45.671Z,6.57
2022-11-25T16:36:12.025Z,6.59
2022-11-25T16:38:38.393Z,6.56
2022-11-25T16:41:13.740Z,6.55
2022-11-25T16:43:40.069Z,6.59
2022-11-25T16:46:06.795Z,6.61
2022-11-25T16:48:33.223Z,6.60
2022-11-25T16:51:00.548Z,6.59
2022-11-25T16:53:27.035Z,6.62
2022-11-25T16:55:53.339Z,6.67
2022-11-25T16:58:22.588Z,6.65
2022-11-25T17:00:53.490Z,6.64
2022-11-25T17:03:21.811Z,6.66
2022-11-25T17:05:48.232Z,6.68
2022-11-25T17:08:14.562Z,6.66
2022-11-25T17:10:43.182Z,6.63
2022-11-25T17:13:23.074Z,6.61
2022-11-25T17:15:49.871Z,6.62
2022-11-25T17:18:18.239Z,6.64
2022-11-25T17:20:46.182Z,6.63
2022-11-25T17:23:17.378Z,6.64
2022-11-25T17:25:48.362Z,6.64
2022-11-25T17:28:18.934Z,6.61
2022-11-25T17:30:47.495Z,6.63
2022-11-25T17:33:17.090Z,6.56
2022-11-25T17:35:43.870Z,6.58
2022-11-25T17:38:21.049Z,6.63
2022-11-25T17:40:47.923Z,6.65
2022-11-25T17:43:19.410Z,6.66
2022-11-25T17:45:46.866Z,6.64
2022-11-25T17:48:17.622Z,6.66
2022-11-25T17:50:44.145Z,6.68
2022-11-25T17:53:10.451Z,6.69
2022-11-25T17:55:37.943Z,6.65
2022-11-25T17:58:05.521Z,6.65
2022-11-25T18:00:34.202Z,6.66
2022-11-25T18:03:00.929Z,6.68
2022-11-25T18:05:28.440Z,6.70
2022-11-25T18:07:55.372Z,6.60
2022-11-25T18:10:25.950Z,6.60
2022-11-25T18:12:54.787Z,6.58
2022-11-25T18:15:27.235Z,6.60
2022-11-25T18:18:03.274Z,6.59
2022-11-25T18:20:32.680Z,6.62
2022-11-25T18:23:00.391Z,6.63
2022-11-25T18:25:31.421Z,6.68
2022-11-25T18:27:59.825Z,6.64
2022-11-25T18:30:29.137Z,6.66
2022-11-25T18:32:57.118Z,6.67
2022-11-25T18:35:32.570Z,6.69
2022-11-25T18:38:01.987Z,6.69
2022-11-25T18:40:29.373Z,6.72
2022-11-25T18:42:57.782Z,6.74
2022-11-25T18:45:28.437Z,6.78
2022-11-25T18:47:54.779Z,6.73
2022-11-25T18:50:23.685Z,6.74
2022-11-25T18:52:51.114Z,6.78
2022-11-25T18:55:20.575Z,6.78
2022-11-25T18:57:50.032Z,6.84
2022-11-25T19:00:37.765Z,6.83
2022-11-25T19:03:04.192Z,6.84
2022-11-25T19:05:33.069Z,6.81
2022-11-25T19:07:59.561Z,6.83
2022-11-25T19:10:31.013Z,6.82
2022-11-25T19:13:01.593Z,6.87
2022-11-25T19:15:27.999Z,6.92
2022-11-25T19:17:58.124Z,6.95
2022-11-25T19:20:26.148Z,6.94
2022-11-25T19:22:55.578Z,6.97
2022-11-25T19:25:25.586Z,6.96
2022-11-25T19:27:56.004Z,6.90
2022-11-25T19:30:24.870Z,6.90
2022-11-25T19:32:56.023Z,6.86
2022-11-25T19:35:35.911Z,6.83
2022-11-25T19:38:02.469Z,6.85
2022-11-25T19:40:32.400Z,6.82
2022-11-25T19:43:02.577Z,6.88
2022-11-25T19:45:29.340Z,6.90
2022-11-25T19:47:55.713Z,6.92
2022-11-25T19:50:28.227Z,6.87
2022-11-25T19:52:54.719Z,6.88
2022-11-25T19:55:29.727Z,6.88
2022-11-25T19:57:56.494Z,6.94
2022-11-25T20:00:23.516Z,6.98
2022-11-25T20:02:53.147Z,7.01
2022-11-25T20:05:27.331Z,7.02
2022-11-25T20:07:53.740Z,7.02
2022-11-25T20:10:29.446Z,7.07
2022-11-25T20:12:56.835Z,7.07
2022-11-25T20:15:24.202Z,7.12
2022-11-25T20:17:53.414Z,7.15
2022-11-25T20:20:25.014Z,7.15
2022-11-25T20:22:55.900Z,7.12
2022-11-25T20:25:22.438Z,7.13
2022-11-25T20:27:48.843Z,7.14
2022-11-25T20:30:26.746Z,7.18
2022-11-25T20:32:53.441Z,7.17
2022-11-25T20:35:20.849Z,7.17
2022-11-25T20:38:00.613Z,7.18
2022-11-25T20:40:36.732Z,7.12
2022-11-25T20:43:03.072Z,7.08
2022-11-25T20:45:29.865Z,7.14
2022-11-25T20:47:56.431Z,7.12
2022-11-25T20:50:22.749Z,7.14
2022-11-25T20:52:52.343Z,7.11
2022-11-25T20:55:23.194Z,7.08
2022-11-25T20:57:51.857Z,7.08
2022-11-25T21:00:27.755Z,7.10
2022-11-25T21:02:56.837Z,7.10
2022-11-25T21:05:23.317Z,7.12
2022-11-25T21:07:50.754Z,7.16
2022-11-25T21:10:29.282Z,7.14
2022-11-25T21:12:56.325Z,7.14
2022-11-25T21:15:26.253Z,7.19
2022-11-25T21:17:52.605Z,7.21
2022-11-25T21:20:19.588Z,7.22
2022-11-25T21:22:49.841Z,7.17
2022-11-25T21:25:21.142Z,7.20
2022-11-25T21:27:48.399Z,7.25
2022-11-25T21:30:19.313Z,7.22
2022-11-25T21:32:46.130Z,7.24
2022-11-25T21:35:14.141Z,7.28
2022-11-25T21:37:42.335Z,7.33
2022-11-25T21:40:27.340Z,7.31
2022-11-25T21:42:53.828Z,7.24
2022-11-25T21:45:20.157Z,7.24
2022-11-25T21:47:46.457Z,7.27
2022-11-25T21:50:17.497Z,7.23
2022-11-25T21:52:44.165Z,7.21
2022-11-25T21:55:17.518Z,7.28
2022-11-25T21:57:43.940Z,7.22
2022-11-25T22:00:28.620Z,7.22
2022-11-25T22:02:54.979Z,7.26
2022-11-25T22:05:25.341Z,7.26
2022-11-25T22:07:51.894Z,7.29
2022-11-25T22:10:18.414Z,7.30
2022-11-25T22:12:46.648Z,7.22
2022-11-25T22:15:15.344Z,7.27
2022-11-25T22:17:42.654Z,7.14
2022-11-25T22:20:25.080Z,7.16
2022-11-25T22:22:51.533Z,7.13
2022-11-25T22:25:17.972Z,7.12
2022-11-25T22:27:44.994Z,7.08
2022-11-25T22:30:20.075Z,7.06
2022-11-25T22:32:49.003Z,7.04
2022-11-25T22:35:17.985Z,6.96
2022-11-25T22:37:46.623Z,6.90
2022-11-25T22:40:16.041Z,6.88
2022-11-25T22:42:46.828Z,6.93
2022-11-25T22:45:38.383Z,6.83
2022-11-25T22:48:06.326Z,6.83
2022-11-25T22:50:34.061Z,6.80
2022-11-25T22:53:01.503Z,6.75
2022-11-25T22:55:30.605Z,6.71
2022-11-25T22:57:58.580Z,6.69
2022-11-25T23:00:32.579Z,6.68
2022-11-25T23:03:00.496Z,6.65
2022-11-25T23:05:32.972Z,6.66
2022-11-25T23:08:00.981Z,6.67
2022-11-25T23:10:31.490Z,6.59
2022-11-25T23:12:57.845Z,6.62
2022-11-25T23:15:24.729Z,6.56
2022-11-25T23:17:54.592Z,6.54
2022-11-25T23:20:29.627Z,6.52
2022-11-25T23:22:56.319Z,6.53
2022-11-25T23:25:23.110Z,6.47
2022-11-25T23:27:49.649Z,6.46
2022-11-25T23:30:18.396Z,6.41
2022-11-25T23:32:45.658Z,6.30
2022-11-25T23:35:18.829Z,6.24
2022-11-25T23:37:52.961Z,6.12
2022-11-25T23:40:21.451Z,6.11
2022-11-25T23:42:48.856Z,6.02
2022-11-25T23:45:20.960Z,6.02
2022-11-25T23:47:50.061Z,6.06
2022-11-25T23:50:26.846Z,5.99
2022-11-25T23:52:59.142Z,6.01
2022-11-25T23:55:36.354Z,6.00
2022-11-25T23:58:08.782Z,5.93
